Time;durP1;ratioP1;P1;durP2;ratioP2;P2;SDS_P1;SDS_P2;PMS_P1;PMS_P2;Temp;Humidity;BMP_temperature;BMP_pressure;BME280_temperature;BME280_humidity;BME280_pressure;Samples;Min_cycle;Max_cycle;Signal;HPM_P1;HPM_P2
2022/10/25 00:02:24;;;;;;;17.58;1.67;;;;;;;12.22;100.00;99168.00;5127369;28;20034;-70
2022/10/25 00:04:49;;;;;;;0.30;0.30;;;;;;;12.21;100.00;99171.47;5127218;28;20035;-71
2022/10/25 00:07:15;;;;;;;0.40;0.40;;;;;;;12.22;100.00;99168.00;5109059;28;20023;-71
2022/10/25 00:09:40;;;;;;;0.30;0.30;;;;;;;12.27;100.00;99176.47;5127319;28;20507;-73
2022/10/25 00:12:06;;;;;;;0.40;0.40;;;;;;;12.18;100.00;99177.66;5127472;28;20044;-71
2022/10/25 00:14:32;;;;;;;0.40;0.40;;;;;;;12.13;100.00;99175.22;5126928;28;20020;-71
2022/10/25 00:16:57;;;;;;;3.03;2.25;;;;;;;12.09;100.00;99173.59;5127127;28;20023;-71
2022/10/25 00:19:22;;;;;;;0.30;0.30;;;;;;;12.06;100.00;99173.66;5126698;28;20212;-70
2022/10/25 00:21:48;;;;;;;0.40;0.40;;;;;;;12.05;100.00;99174.59;5126958;28;20106;-71
2022/10/25 00:24:13;;;;;;;0.60;0.60;;;;;;;11.97;100.00;99163.59;5126811;28;20032;-71
2022/10/25 00:26:40;;;;;;;0.40;0.40;;;;;;;12.00;100.00;99171.28;5126554;28;20528;-74
2022/10/25 00:29:06;;;;;;;1.40;1.20;;;;;;;11.94;100.00;99155.88;5126410;28;20088;-72
2022/10/25 00:31:31;;;;;;;0.30;0.30;;;;;;;11.97;100.00;99167.03;5108148;28;20057;-70
2022/10/25 00:33:56;;;;;;;4.55;2.60;;;;;;;11.87;100.00;99153.50;5108451;28;20114;-70
2022/10/25 00:36:24;;;;;;;0.40;0.40;;;;;;;11.88;100.00;99168.22;5107668;28;20039;-70
2022/10/25 00:38:50;;;;;;;0.40;0.40;;;;;;;11.84;100.00;99164.00;5126297;28;20026;-71
2022/10/25 00:41:21;;;;;;;0.95;0.95;;;;;;;11.89;100.00;99171.66;5108271;28;20047;-69
2022/10/25 00:43:49;;;;;;;2.10;1.95;;;;;;;11.85;100.00;99163.09;5107886;28;20116;-72
2022/10/25 00:46:17;;;;;;;3.75;3.45;;;;;;;11.88;100.00;99164.75;5106903;28;20019;-72
2022/10/25 00:49:07;;;;;;;0.40;0.40;;;;;;;11.46;100.00;99098.56;5125939;28;20031;-72
2022/10/25 00:51:37;;;;;;;0.40;0.40;;;;;;;11.84;100.00;99166.59;5126270;28;20047;-71
2022/10/25 00:54:04;;;;;;;0.60;0.60;;;;;;;11.77;100.00;99165.97;5126185;28;20027;-71
2022/10/25 00:56:35;;;;;;;0.40;0.40;;;;;;;11.75;100.00;99156.53;5126042;28;20023;-72
2022/10/25 00:59:06;;;;;;;0.82;0.82;;;;;;;11.77;100.00;99152.97;5108019;28;20041;-73
2022/10/25 01:01:31;;;;;;;0.30;0.30;;;;;;;11.72;100.00;99152.28;5126046;28;20084;-70
2022/10/25 01:04:01;;;;;;;0.38;0.38;;;;;;;11.64;100.00;99144.75;5126012;28;20102;-72
2022/10/25 01:06:42;;;;;;;0.30;0.30;;;;;;;11.64;100.00;99149.94;5125831;28;20015;-70
2022/10/25 01:09:14;;;;;;;0.50;0.50;;;;;;;11.58;100.00;99142.31;5125916;28;20089;-72
2022/10/25 01:11:39;;;;;;;0.52;0.52;;;;;;;11.56;100.00;99145.88;5107641;28;20020;-73
2022/10/25 01:14:07;;;;;;;0.32;0.32;;;;;;;11.61;100.00;99157.81;5125675;28;20024;-70
2022/10/25 01:16:52;;;;;;;0.40;0.40;;;;;;;11.59;100.00;99153.56;5107352;28;20079;-69
2022/10/25 01:20:04;;;;;;;0.60;0.60;;;;;;;11.55;100.00;99154.59;5125698;28;20030;-69
2022/10/25 01:22:42;;;;;;;0.60;0.60;;;;;;;11.49;100.00;99153.03;5022920;28;20052;-69
2022/10/25 01:25:38;;;;;;;1.15;1.15;;;;;;;11.49;100.00;99156.47;5022494;28;20105;-69
2022/10/25 01:28:15;;;;;;;4.05;3.72;;;;;;;11.50;100.00;99159.94;5022428;28;20029;-69
2022/10/25 01:30:51;;;;;;;0.40;0.40;;;;;;;11.49;100.00;99159.06;5022619;28;20041;-67
2022/10/25 01:33:36;;;;;;;0.40;0.40;;;;;;;11.50;100.00;99146.94;5022731;28;20036;-67
2022/10/25 01:36:44;;;;;;;1.48;1.38;;;;;;;11.39;100.00;99135.13;5005960;28;20136;-69
2022/10/25 01:39:28;;;;;;;0.40;0.40;;;;;;;11.40;100.00;99143.78;4945213;29;20025;-68
2022/10/25 01:42:17;;;;;;;0.40;0.40;;;;;;;11.46;100.00;99148.78;4944940;29;20039;-67
2022/10/25 01:44:54;;;;;;;0.40;0.40;;;;;;;11.41;100.00;99135.09;4944914;29;20132;-69
2022/10/25 01:47:24;;;;;;;0.40;0.40;;;;;;;11.41;100.00;99124.69;4945111;29;20058;-69
2022/10/25 01:49:56;;;;;;;0.40;0.40;;;;;;;11.35;100.00;99133.53;4945004;29;20071;-69
2022/10/25 01:52:23;;;;;;;0.40;0.40;;;;;;;11.41;100.00;99132.47;4945132;29;20040;-69
2022/10/25 01:54:49;;;;;;;1.83;1.73;;;;;;;11.38;100.00;99125.66;4944837;29;20040;-69
2022/10/25 01:57:43;;;;;;;0.40;0.40;;;;;;;11.42;100.00;99125.53;5032652;28;20044;-68
2022/10/25 02:00:13;;;;;;;0.40;0.40;;;;;;;11.37;100.00;99125.69;5046210;28;20088;-69
2022/10/25 02:02:54;;;;;;;0.93;0.93;;;;;;;11.41;100.00;99129.88;5046292;28;20040;-69
2022/10/25 02:05:44;;;;;;;0.40;0.40;;;;;;;11.40;100.00;99143.78;5029354;28;20029;-68
2022/10/25 02:08:28;;;;;;;0.50;0.50;;;;;;;11.36;100.00;99131.78;5046359;28;20115;-67
2022/10/25 02:11:11;;;;;;;0.50;0.50;;;;;;;11.33;100.00;99122.34;5029524;28;20421;-68
2022/10/25 02:13:51;;;;;;;0.40;0.40;;;;;;;11.32;100.00;99125.00;5107774;28;20028;-68
2022/10/25 02:16:22;;;;;;;2.28;1.52;;;;;;;11.27;100.00;99110.41;5129098;28;20058;-68
2022/10/25 02:18:52;;;;;;;0.50;0.50;;;;;;;11.30;100.00;99125.03;5129303;28;20049;-68
2022/10/25 02:21:19;;;;;;;3.50;2.08;;;;;;;11.36;100.00;99122.25;5129634;28;20027;-68
2022/10/25 02:23:47;;;;;;;0.68;0.68;;;;;;;11.31;100.00;99128.50;5129258;28;20026;-69
2022/10/25 02:26:14;;;;;;;0.40;0.40;;;;;;;11.28;100.00;99129.44;5129387;28;20031;-68
2022/10/25 02:28:40;;;;;;;0.40;0.40;;;;;;;11.28;100.00;99129.44;5129240;28;20071;-68
2022/10/25 02:31:09;;;;;;;0.47;0.47;;;;;;;11.28;100.00;99134.63;5129076;28;20020;-67
2022/10/25 02:33:36;;;;;;;0.40;0.40;;;;;;;11.25;100.00;99122.59;5129275;28;20026;-67
2022/10/25 02:36:10;;;;;;;1.15;1.05;;;;;;;11.30;100.00;99137.16;5128728;28;20078;-67
2022/10/25 02:38:36;;;;;;;0.60;0.60;;;;;;;11.30;100.00;99125.03;5110686;28;20020;-67
2022/10/25 02:41:03;;;;;;;0.40;0.40;;;;;;;11.28;100.00;99124.22;5128867;28;20074;-67
2022/10/25 02:43:28;;;;;;;0.32;0.32;;;;;;;11.27;100.00;99133.78;5128972;28;20024;-67
2022/10/25 02:45:54;;;;;;;0.40;0.40;;;;;;;11.27;100.00;99135.53;5128952;28;20072;-67
2022/10/25 02:48:19;;;;;;;1.52;1.42;;;;;;;11.32;100.00;99135.38;5128754;28;20084;-68
2022/10/25 02:50:44;;;;;;;0.65;0.65;;;;;;;11.26;100.00;99123.44;5110520;28;20020;-68
2022/10/25 02:53:10;;;;;;;0.40;0.40;;;;;;;11.26;100.00;99133.84;5128836;28;20020;-67
2022/10/25 02:55:35;;;;;;;0.30;0.30;;;;;;;11.28;100.00;99126.81;5110531;28;20016;-67
2022/10/25 02:58:00;;;;;;;0.40;0.40;;;;;;;11.32;100.00;99131.03;5128764;28;20075;-68
2022/10/25 03:00:26;;;;;;;0.40;0.40;;;;;;;11.32;100.00;99136.25;5128630;28;20110;-66
2022/10/25 03:02:51;;;;;;;0.40;0.40;;;;;;;11.33;100.00;99132.72;5128616;28;20031;-66
2022/10/25 03:05:16;;;;;;;0.40;0.40;;;;;;;11.32;100.00;99138.84;5128532;28;20045;-67
2022/10/25 03:07:41;;;;;;;0.68;0.68;;;;;;;11.36;100.00;99135.22;5128415;28;20364;-66
2022/10/25 03:10:07;;;;;;;0.30;0.30;;;;;;;11.35;100.00;99130.09;5109430;28;20054;-68
2022/10/25 03:12:33;;;;;;;1.10;1.10;;;;;;;11.33;100.00;99137.94;5110396;28;20020;-68
2022/10/25 03:14:58;;;;;;;2.25;2.05;;;;;;;11.32;100.00;99136.25;5128281;28;20024;-68
2022/10/25 03:17:23;;;;;;;0.70;0.70;;;;;;;11.31;100.00;99137.13;5128561;28;20024;-67
2022/10/25 03:19:48;;;;;;;0.60;0.57;;;;;;;11.38;100.00;99141.25;5128366;28;20035;-66
2022/10/25 03:22:14;;;;;;;0.30;0.30;;;;;;;11.37;100.00;99143.88;5128337;28;20019;-66
2022/10/25 03:24:39;;;;;;;0.40;0.40;;;;;;;11.36;100.00;99130.03;5128197;28;20015;-66
2022/10/25 03:27:04;;;;;;;6.53;2.90;;;;;;;11.37;100.00;99149.91;5128050;28;20020;-66
2022/10/25 03:29:30;;;;;;;0.40;0.40;;;;;;;11.30;100.00;99132.84;5127861;28;20066;-65
2022/10/25 03:31:55;;;;;;;1.63;1.52;;;;;;;11.36;100.00;99145.63;5127957;28;20032;-66
2022/10/25 03:34:20;;;;;;;0.63;0.63;;;;;;;11.38;100.00;99130.84;5127934;28;20020;-65
2022/10/25 03:36:46;;;;;;;0.55;0.55;;;;;;;11.39;100.00;99144.66;5127600;28;20055;-65
2022/10/25 03:39:11;;;;;;;0.50;0.50;;;;;;;11.39;100.00;99137.72;5109444;28;20117;-66
2022/10/25 03:41:36;;;;;;;1.05;1.05;;;;;;;11.38;100.00;99145.56;5127721;28;20120;-66
2022/10/25 03:44:02;;;;;;;0.40;0.40;;;;;;;11.43;100.00;99148.88;5127762;28;20114;-66
2022/10/25 03:46:27;;;;;;;3.22;2.15;;;;;;;11.42;100.00;99148.94;5127688;28;20038;-66
2022/10/25 03:48:52;;;;;;;0.40;0.40;;;;;;;11.40;100.00;99162.84;5127603;28;20119;-66
2022/10/25 03:51:18;;;;;;;0.82;0.82;;;;;;;11.44;100.00;99153.16;5109328;28;20062;-67
2022/10/25 03:53:43;;;;;;;0.40;0.40;;;;;;;11.48;100.00;99156.53;5127749;28;20035;-66
2022/10/25 03:56:08;;;;;;;0.40;0.40;;;;;;;11.47;100.00;99149.66;5127303;28;20023;-67
2022/10/25 03:58:34;;;;;;;2.60;1.80;;;;;;;11.43;100.00;99159.28;5127469;28;20050;-68
2022/10/25 04:00:59;;;;;;;0.40;0.40;;;;;;;11.38;100.00;99155.97;5127331;28;20463;-67
2022/10/25 04:03:24;;;;;;;0.40;0.40;;;;;;;11.44;100.00;99162.75;5127289;28;20031;-67
2022/10/25 04:05:50;;;;;;;1.20;1.20;;;;;;;11.44;100.00;99160.97;5127375;28;20027;-66
2022/10/25 04:08:15;;;;;;;0.40;0.40;;;;;;;11.45;100.00;99165.28;5127263;28;20031;-66
2022/10/25 04:10:40;;;;;;;0.40;0.40;;;;;;;11.45;100.00;99167.03;5127024;28;20028;-67
2022/10/25 04:13:06;;;;;;;0.40;0.40;;;;;;;11.42;100.00;99172.31;5108779;28;20070;-67
2022/10/25 04:15:31;;;;;;;0.43;0.43;;;;;;;11.44;100.00;99170.53;5126911;28;20024;-67
2022/10/25 04:17:56;;;;;;;0.40;0.40;;;;;;;11.46;100.00;99163.53;5126871;28;20027;-67
2022/10/25 04:20:22;;;;;;;0.85;0.85;;;;;;;11.46;100.00;99176.50;5127091;28;20027;-67
2022/10/25 04:22:56;;;;;;;0.95;0.93;;;;;;;11.48;100.00;99174.72;5125985;28;20053;-68
2022/10/25 04:25:26;;;;;;;0.57;0.57;;;;;;;11.48;100.00;99177.31;5126797;28;20043;-67
2022/10/25 04:27:52;;;;;;;0.40;0.40;;;;;;;11.50;100.00;99176.38;5127113;28;20047;-66
2022/10/25 04:30:18;;;;;;;2.90;2.00;;;;;;;11.47;100.00;99167.84;5126594;28;20491;-67
2022/10/25 04:32:43;;;;;;;0.50;0.50;;;;;;;11.46;100.00;99182.56;5126765;28;20027;-65
2022/10/25 04:35:11;;;;;;;0.38;0.38;;;;;;;11.51;100.00;99188.47;5126166;28;20040;-67
2022/10/25 04:37:37;;;;;;;0.30;0.30;;;;;;;11.50;100.00;99191.13;5126619;28;20023;-67
2022/10/25 04:40:02;;;;;;;0.38;0.38;;;;;;;11.55;100.00;99175.38;5126623;28;20027;-67
2022/10/25 04:42:28;;;;;;;0.40;0.40;;;;;;;11.52;100.00;99184.97;5108365;28;20147;-67
2022/10/25 04:44:53;;;;;;;1.40;1.40;;;;;;;11.49;100.00;99189.41;5126656;28;20027;-67
2022/10/25 04:47:18;;;;;;;0.77;0.77;;;;;;;11.52;100.00;99189.31;5126403;28;20036;-66
2022/10/25 04:49:44;;;;;;;0.40;0.40;;;;;;;11.55;100.00;99196.19;5126656;28;20090;-67
2022/10/25 04:52:09;;;;;;;2.90;2.25;;;;;;;11.55;100.00;99202.19;5108029;28;20089;-67
2022/10/25 04:54:34;;;;;;;0.40;0.40;;;;;;;11.57;100.00;99197.81;5126291;28;20023;-68
2022/10/25 04:57:00;;;;;;;0.40;0.40;;;;;;;11.53;100.00;99197.06;5126415;28;20023;-70
2022/10/25 04:59:25;;;;;;;0.55;0.55;;;;;;;11.57;100.00;99207.34;5125454;28;20019;-70
2022/10/25 05:01:50;;;;;;;3.72;3.42;;;;;;;11.52;100.00;99194.50;5107709;28;20046;-70
2022/10/25 05:04:15;;;;;;;0.55;0.55;;;;;;;11.56;100.00;99206.53;5126272;28;20080;-69
2022/10/25 05:06:41;;;;;;;0.45;0.45;;;;;;;11.57;100.00;99208.22;5126353;28;20529;-69
2022/10/25 05:09:06;;;;;;;0.40;0.40;;;;;;;11.58;100.00;99214.28;5126446;28;20031;-70
2022/10/25 05:11:31;;;;;;;1.25;1.25;;;;;;;11.58;100.00;99225.50;5126335;28;20540;-71
2022/10/25 05:13:57;;;;;;;0.40;0.40;;;;;;;11.60;100.00;99228.03;5126005;28;20023;-72
2022/10/25 05:16:23;;;;;;;0.40;0.40;;;;;;;11.33;100.00;99179.50;5125829;28;20490;-73
2022/10/25 05:18:53;;;;;;;0.40;0.40;;;;;;;11.61;100.00;99222.81;5107789;28;20015;-72
2022/10/25 05:21:19;;;;;;;0.40;0.40;;;;;;;11.58;100.00;99233.28;5107399;28;20479;-71
2022/10/25 05:23:45;;;;;;;2.92;2.55;;;;;;;11.61;100.00;99225.41;5125863;28;20020;-69
2022/10/25 05:26:17;;;;;;;0.50;0.50;;;;;;;11.56;100.00;99221.25;5125887;28;20088;-71
2022/10/25 05:28:45;;;;;;;0.40;0.40;;;;;;;11.61;100.00;99243.59;5125939;28;20039;-70
2022/10/25 05:31:14;;;;;;;0.50;0.50;;;;;;;11.58;100.00;99233.28;5125525;28;20027;-72
2022/10/25 05:33:43;;;;;;;0.40;0.40;;;;;;;11.59;100.00;99236.75;5125467;28;20088;-71
2022/10/25 05:36:09;;;;;;;1.75;1.65;;;;;;;11.58;100.00;99233.28;5103769;28;20237;-71
2022/10/25 05:38:34;;;;;;;0.40;0.40;;;;;;;11.57;100.00;99243.75;5105694;28;20023;-72
2022/10/25 05:41:00;;;;;;;0.40;0.40;;;;;;;11.57;100.00;99234.22;5105176;28;20487;-71
2022/10/25 05:43:25;;;;;;;0.40;0.40;;;;;;;11.57;100.00;99239.41;5103769;28;20043;-70
2022/10/25 05:45:52;;;;;;;14.10;3.33;;;;;;;11.57;100.00;99256.75;5103687;28;20048;-70
2022/10/25 05:48:17;;;;;;;0.40;0.40;;;;;;;11.61;100.00;99243.59;5105271;28;20030;-72
2022/10/25 05:50:43;;;;;;;0.50;0.50;;;;;;;11.64;100.00;99264.31;5105320;28;20024;-72
2022/10/25 05:53:09;;;;;;;0.40;0.40;;;;;;;11.65;100.00;99260.81;5103676;28;20501;-71
2022/10/25 05:55:34;;;;;;;0.40;0.40;;;;;;;11.68;100.00;99269.44;5105180;28;20031;-73
2022/10/25 05:57:59;;;;;;;0.40;0.40;;;;;;;11.59;100.00;99253.22;5104974;28;20020;-72
2022/10/25 06:00:25;;;;;;;0.40;0.40;;;;;;;11.63;100.00;99265.22;5105013;28;20123;-73
2022/10/25 06:02:50;;;;;;;0.40;0.40;;;;;;;11.61;100.00;99269.59;5103825;28;20028;-72
2022/10/25 06:05:16;;;;;;;0.40;0.40;;;;;;;11.60;100.00;99273.09;5105201;28;20028;-71
2022/10/25 06:07:41;;;;;;;0.40;0.40;;;;;;;11.59;100.00;99273.16;5103836;28;20035;-70
2022/10/25 06:10:07;;;;;;;5.38;2.88;;;;;;;11.62;100.00;99279.13;5105190;28;20089;-70
2022/10/25 06:12:32;;;;;;;0.50;0.50;;;;;;;11.60;100.00;99280.91;5105390;28;20092;-68
2022/10/25 06:14:57;;;;;;;0.40;0.40;;;;;;;11.64;100.00;99286.88;5104972;28;20028;-68
2022/10/25 06:17:23;;;;;;;0.40;0.40;;;;;;;11.66;100.00;99279.88;5105466;28;20049;-68
2022/10/25 06:19:48;;;;;;;0.40;0.40;;;;;;;11.61;100.00;99277.38;5105266;28;20101;-69
2022/10/25 06:22:13;;;;;;;0.40;0.40;;;;;;;11.71;100.00;99296.16;5105321;28;20050;-69
2022/10/25 06:24:39;;;;;;;0.40;0.40;;;;;;;11.70;100.00;99293.59;5105271;28;20024;-69
2022/10/25 06:27:04;;;;;;;0.50;0.50;;;;;;;11.68;100.00;99303.22;5105258;28;20046;-70
2022/10/25 06:29:29;;;;;;;1.83;0.70;;;;;;;11.67;100.00;99299.75;5104819;28;20029;-70
2022/10/25 06:31:55;;;;;;;0.40;0.40;;;;;;;11.62;100.00;99289.50;5105219;28;20046;-70
2022/10/25 06:34:20;;;;;;;0.50;0.50;;;;;;;11.70;100.00;99309.22;5103907;28;20375;-70
2022/10/25 06:36:45;;;;;;;0.40;0.40;;;;;;;11.71;100.00;99313.53;5123560;28;20047;-70
2022/10/25 06:39:11;;;;;;;0.77;0.77;;;;;;;11.67;100.00;99306.69;5125477;28;20478;-70
2022/10/25 06:41:36;;;;;;;0.40;0.40;;;;;;;11.71;100.00;99319.56;5125391;28;20028;-71
2022/10/25 06:44:01;;;;;;;0.40;0.40;;;;;;;11.74;100.00;99308.22;5125610;28;20050;-71
2022/10/25 06:46:32;;;;;;;0.40;0.40;;;;;;;11.73;100.00;99327.31;5128394;28;20035;-70
2022/10/25 06:48:58;;;;;;;0.43;0.43;;;;;;;11.69;100.00;99316.19;5129213;28;20032;-71
2022/10/25 06:51:26;;;;;;;0.40;0.40;;;;;;;11.72;100.00;99312.63;5129190;28;20035;-70
2022/10/25 06:53:58;;;;;;;0.40;0.40;;;;;;;11.70;100.00;99332.59;5129089;28;20023;-71
2022/10/25 06:56:25;;;;;;;0.40;0.40;;;;;;;11.73;100.00;99327.31;5110639;28;20031;-70
2022/10/25 06:58:50;;;;;;;0.80;0.80;;;;;;;11.72;100.00;99336.88;5128975;28;20028;-70
2022/10/25 07:01:17;;;;;;;0.43;0.43;;;;;;;11.70;100.00;99333.47;5110523;28;20096;-70
2022/10/25 07:03:43;;;;;;;0.50;0.50;;;;;;;11.72;100.00;99342.09;5128796;28;20039;-70
2022/10/25 07:06:12;;;;;;;0.40;0.40;;;;;;;11.75;100.00;99346.31;5128827;28;20030;-71
2022/10/25 07:08:40;;;;;;;0.40;0.40;;;;;;;11.78;100.00;99338.44;5128795;28;20099;-71
2022/10/25 07:11:06;;;;;;;0.50;0.50;;;;;;;11.77;100.00;99344.53;5128725;28;20439;-71
2022/10/25 07:13:33;;;;;;;0.50;0.50;;;;;;;11.75;100.00;99341.13;5110262;28;20184;-71
2022/10/25 07:16:09;;;;;;;0.30;0.30;;;;;;;11.76;100.00;99332.41;5110092;28;20058;-71
2022/10/25 07:18:35;;;;;;;0.60;0.60;;;;;;;11.80;100.00;99349.66;5110292;28;20073;-71
2022/10/25 07:21:02;;;;;;;0.40;0.40;;;;;;;11.82;100.00;99350.44;5110160;28;20305;-72
2022/10/25 07:23:29;;;;;;;0.40;0.40;;;;;;;11.76;100.00;99345.41;5128490;28;20041;-71
2022/10/25 07:25:54;;;;;;;0.40;0.40;;;;;;;11.86;100.00;99359.00;5128429;28;20027;-72
2022/10/25 07:28:19;;;;;;;0.40;0.40;;;;;;;11.88;100.00;99355.47;5128249;28;20031;-72
2022/10/25 07:30:46;;;;;;;0.95;0.95;;;;;;;11.88;100.00;99358.06;5128185;28;20023;-72
2022/10/25 07:33:16;;;;;;;0.40;0.40;;;;;;;11.91;100.00;99362.31;5128291;28;20528;-72
2022/10/25 07:35:46;;;;;;;0.50;0.50;;;;;;;11.89;100.00;99353.69;5127907;28;20107;-72
2022/10/25 07:38:12;;;;;;;4.47;2.75;;;;;;;11.97;100.00;99364.72;5128142;28;20459;-72
2022/10/25 07:40:38;;;;;;;4.97;1.70;;;;;;;11.95;100.00;99356.09;5128117;28;20027;-72
2022/10/25 07:43:03;;;;;;;0.60;0.60;;;;;;;11.96;100.00;99354.38;5127847;28;20028;-72
2022/10/25 07:45:29;;;;;;;0.40;0.40;;;;;;;12.03;100.00;99368.88;5127555;28;20114;-72
2022/10/25 07:47:54;;;;;;;0.40;0.40;;;;;;;12.02;99.58;99357.63;5109685;28;20043;-72
2022/10/25 07:50:19;;;;;;;0.40;0.40;;;;;;;12.01;99.84;99353.31;5128175;28;20050;-72
2022/10/25 07:52:45;;;;;;;1.25;1.25;;;;;;;12.10;99.84;99378.22;5109698;28;20057;-72
2022/10/25 07:55:11;;;;;;;0.40;0.40;;;;;;;12.13;100.00;99372.94;5127938;28;20024;-72
2022/10/25 07:57:36;;;;;;;1.15;1.15;;;;;;;12.09;99.26;99371.31;5109208;28;20084;-72
2022/10/25 08:00:03;;;;;;;0.50;0.50;;;;;;;12.09;99.23;99360.91;5127674;28;20031;-72
2022/10/25 08:02:28;;;;;;;0.50;0.50;;;;;;;12.13;99.27;99377.28;5127712;28;20049;-72
2022/10/25 08:04:54;;;;;;;0.40;0.40;;;;;;;12.11;99.44;99363.44;5127705;28;20016;-72
2022/10/25 08:07:19;;;;;;;0.40;0.40;;;;;;;12.17;99.13;99378.03;5127721;28;20027;-71
2022/10/25 08:09:44;;;;;;;1.95;1.85;;;;;;;12.10;98.81;99370.44;5127579;28;20023;-71
2022/10/25 08:12:10;;;;;;;0.52;0.52;;;;;;;12.10;98.97;99374.78;5109033;28;20020;-70
2022/10/25 08:14:35;;;;;;;1.00;1.00;;;;;;;12.10;98.59;99387.78;5127280;28;20026;-71
2022/10/25 08:17:00;;;;;;;2.45;2.35;;;;;;;12.10;98.73;99398.19;5127541;28;20042;-71
2022/10/25 08:19:26;;;;;;;0.40;0.40;;;;;;;12.07;98.45;99393.91;5127427;28;20020;-72
2022/10/25 08:21:51;;;;;;;0.50;0.50;;;;;;;12.06;98.86;99386.16;5126964;28;20028;-72
2022/10/25 08:24:16;;;;;;;0.40;0.40;;;;;;;12.06;98.61;99394.78;5108685;28;20034;-71
2022/10/25 08:26:41;;;;;;;0.40;0.40;;;;;;;12.09;98.79;99386.91;5127073;28;20479;-71
2022/10/25 08:29:07;;;;;;;0.40;0.40;;;;;;;12.14;98.92;99413.66;5108441;28;20040;-71
2022/10/25 08:31:32;;;;;;;0.55;0.55;;;;;;;12.13;98.53;99411.09;5126871;28;20042;-72
2022/10/25 08:33:58;;;;;;;0.40;0.40;;;;;;;12.12;98.55;99402.44;5126994;28;20024;-71
2022/10/25 08:36:25;;;;;;;0.40;0.40;;;;;;;12.14;98.19;99415.41;5126875;28;20047;-71
2022/10/25 08:38:50;;;;;;;0.40;0.40;;;;;;;12.16;98.09;99423.19;5108678;28;20016;-71
2022/10/25 08:41:33;;;;;;;0.40;0.40;;;;;;;12.19;98.52;99420.47;5127048;28;20096;-72
2022/10/25 08:44:07;;;;;;;0.40;0.40;;;;;;;12.20;98.40;99427.38;5126829;28;20129;-72
2022/10/25 08:46:41;;;;;;;0.40;0.40;;;;;;;12.17;98.55;99424.88;5126486;28;20027;-72
2022/10/25 08:49:19;;;;;;;1.20;1.20;;;;;;;12.21;98.20;99431.66;5126754;28;20023;-73
2022/10/25 08:51:47;;;;;;;0.95;0.95;;;;;;;12.21;98.41;99432.53;5108317;28;20384;-72
2022/10/25 08:54:23;;;;;;;0.60;0.60;;;;;;;12.24;97.76;99434.19;5126193;28;20027;-72
2022/10/25 08:56:52;;;;;;;1.50;1.48;;;;;;;12.27;98.20;99442.75;5126773;28;20031;-71
2022/10/25 08:59:26;;;;;;;1.42;1.33;;;;;;;12.29;98.19;99449.66;5126415;28;20058;-72
2022/10/25 09:01:57;;;;;;;0.40;0.40;;;;;;;12.29;97.72;99449.66;5126295;28;20024;-73
2022/10/25 09:04:23;;;;;;;1.02;1.02;;;;;;;12.31;97.70;99459.13;5126492;28;20016;-72
2022/10/25 09:06:51;;;;;;;0.90;0.90;;;;;;;12.38;97.86;99452.00;5125838;28;20110;-73
2022/10/25 09:09:58;;;;;;;0.40;0.40;;;;;;;12.48;97.66;99456.00;5125284;28;20049;-73
2022/10/25 09:12:31;;;;;;;0.40;0.40;;;;;;;12.49;97.92;99462.88;5022751;28;20076;-73
2022/10/25 09:15:08;;;;;;;1.67;1.58;;;;;;;12.52;97.54;99467.16;5022826;28;20025;-73
2022/10/25 09:17:47;;;;;;;0.40;0.40;;;;;;;12.50;97.07;99462.00;5023012;28;20030;-72
2022/10/25 09:20:20;;;;;;;0.40;0.40;;;;;;;12.58;96.40;99468.72;5006696;28;20033;-73
2022/10/25 09:22:56;;;;;;;0.40;0.40;;;;;;;12.64;96.79;99477.19;5006917;28;20445;-72
2022/10/25 09:25:37;;;;;;;0.40;0.40;;;;;;;12.62;95.67;99485.97;5023572;28;20030;-73
2022/10/25 09:28:10;;;;;;;1.25;1.25;;;;;;;12.60;95.82;99482.53;5023073;28;20032;-73
2022/10/25 09:30:40;;;;;;;0.40;0.40;;;;;;;12.61;95.62;99486.84;5023148;28;20034;-73
2022/10/25 09:33:19;;;;;;;2.67;2.47;;;;;;;12.60;95.33;99485.97;5023137;28;20037;-74
2022/10/25 09:35:52;;;;;;;0.40;0.40;;;;;;;12.65;95.38;99493.66;5022826;28;20069;-73
2022/10/25 09:38:39;;;;;;;1.92;1.77;;;;;;;12.73;95.53;99509.03;5023308;28;20041;-74
2022/10/25 09:41:10;;;;;;;0.40;0.40;;;;;;;12.71;94.84;99506.50;5023125;28;20087;-73
2022/10/25 09:43:42;;;;;;;0.40;0.40;;;;;;;12.64;94.84;99505.81;5023045;28;20033;-73
2022/10/25 09:46:30;;;;;;;0.43;0.43;;;;;;;12.67;95.27;99506.63;5006088;28;20026;-73
2022/10/25 09:49:07;;;;;;;0.63;0.63;;;;;;;12.59;94.86;99512.91;5071198;28;20389;-72
2022/10/25 09:51:51;;;;;;;0.40;0.40;;;;;;;12.58;94.34;99513.84;5125793;28;20027;-73
2022/10/25 09:54:52;;;;;;;0.63;0.63;;;;;;;12.64;95.04;99513.63;5107290;28;20031;-73
2022/10/25 09:57:18;;;;;;;0.30;0.30;;;;;;;12.60;95.11;99517.22;5092771;28;20492;-73
2022/10/25 09:59:48;;;;;;;0.40;0.40;;;;;;;12.56;95.20;99510.41;5107012;28;20087;-72
2022/10/25 10:02:20;;;;;;;0.40;0.40;;;;;;;12.62;95.62;99523.25;5125588;28;20024;-72
2022/10/25 10:04:46;;;;;;;5.05;1.85;;;;;;;12.63;95.52;99524.97;5125640;28;20028;-72
2022/10/25 10:07:19;;;;;;;0.40;0.40;;;;;;;12.65;95.47;99532.72;5125637;28;20026;-73
2022/10/25 10:09:47;;;;;;;0.30;0.30;;;;;;;12.67;96.03;99524.88;5125389;28;20031;-73
2022/10/25 10:12:21;;;;;;;0.80;0.80;;;;;;;12.71;95.75;99535.13;5125573;28;20024;-72
2022/10/25 10:14:55;;;;;;;6.60;4.50;;;;;;;12.72;95.22;99535.97;5125397;28;20050;-73
2022/10/25 10:17:23;;;;;;;0.40;0.40;;;;;;;12.75;95.53;99546.28;5125581;28;20026;-73
2022/10/25 10:20:15;;;;;;;0.40;0.40;;;;;;;12.72;95.10;99539.44;5127953;28;20114;-73
2022/10/25 10:22:54;;;;;;;0.40;0.40;;;;;;;12.68;95.22;99545.66;5129672;28;20048;-72
2022/10/25 10:25:27;;;;;;;0.40;0.40;;;;;;;12.71;95.00;99553.38;5111162;28;20031;-72
2022/10/25 10:27:55;;;;;;;0.30;0.30;;;;;;;12.69;95.08;99554.28;5129312;28;20032;-72
2022/10/25 10:30:29;;;;;;;0.40;0.40;;;;;;;12.67;95.07;99553.50;5129504;28;20110;-72
2022/10/25 10:33:08;;;;;;;1.30;1.25;;;;;;;12.59;94.23;99541.56;5129279;28;20027;-72
2022/10/25 10:35:35;;;;;;;0.50;0.50;;;;;;;12.69;94.52;99556.91;5129157;28;20535;-73
2022/10/25 10:38:27;;;;;;;0.30;0.30;;;;;;;12.67;94.53;99561.31;5129371;28;20016;-72
2022/10/25 10:41:13;;;;;;;0.43;0.43;;;;;;;12.65;94.56;99566.59;5115584;28;20039;-72
2022/10/25 10:43:39;;;;;;;0.40;0.40;;;;;;;12.61;94.75;99567.56;5129393;28;20083;-72
2022/10/25 10:46:10;;;;;;;0.50;0.50;;;;;;;12.63;94.62;99564.03;5110581;28;20024;-72
2022/10/25 10:48:40;;;;;;;6.32;5.68;;;;;;;12.62;94.59;99557.09;5110737;28;20088;-72
2022/10/25 10:51:05;;;;;;;0.40;0.40;;;;;;;12.63;94.11;99561.41;5129083;28;20023;-72
2022/10/25 10:53:31;;;;;;;0.40;0.40;;;;;;;12.72;94.23;99573.28;5128851;28;20424;-72
2022/10/25 10:56:05;;;;;;;0.40;0.40;;;;;;;12.79;94.36;99573.97;5128632;28;20024;-72
2022/10/25 10:58:33;;;;;;;1.70;1.60;;;;;;;12.88;93.67;99584.09;5128703;28;20024;-72
2022/10/25 11:01:06;;;;;;;0.30;0.30;;;;;;;12.94;93.95;99572.59;5128718;28;20084;-72
2022/10/25 11:03:40;;;;;;;0.40;0.40;;;;;;;12.95;93.17;99581.28;5128978;28;20024;-73
2022/10/25 11:06:09;;;;;;;0.40;0.40;;;;;;;12.95;92.98;99589.09;5110315;28;20055;-72
2022/10/25 11:08:35;;;;;;;0.73;0.73;;;;;;;13.02;93.14;99582.78;5128567;28;20020;-72
2022/10/25 11:11:12;;;;;;;0.30;0.30;;;;;;;13.05;92.69;99595.72;5128755;28;20030;-72
2022/10/25 11:13:38;;;;;;;0.30;0.30;;;;;;;13.02;92.70;99580.19;5128679;28;20050;-72
2022/10/25 11:16:28;;;;;;;0.30;0.30;;;;;;;13.03;92.23;99594.94;5128312;28;20047;-72
2022/10/25 11:19:24;;;;;;;0.40;0.40;;;;;;;12.88;92.25;99594.50;5128761;28;20023;-72
2022/10/25 11:22:02;;;;;;;0.40;0.40;;;;;;;12.91;93.31;99605.75;5110098;28;20023;-72
2022/10/25 11:24:42;;;;;;;0.57;0.57;;;;;;;12.96;93.92;99609.91;5128576;28;20024;-73
2022/10/25 11:27:25;;;;;;;0.40;0.40;;;;;;;13.00;93.65;99608.06;5109914;28;20028;-73
2022/10/25 11:30:02;;;;;;;0.75;0.75;;;;;;;12.96;94.05;99604.69;5109694;28;20040;-73
2022/10/25 11:32:55;;;;;;;0.40;0.40;;;;;;;13.07;94.09;99609.56;5127710;28;20035;-73
2022/10/25 11:35:39;;;;;;;0.40;0.40;;;;;;;13.12;93.80;99610.28;5109609;28;20039;-73
2022/10/25 11:38:11;;;;;;;0.40;0.40;;;;;;;13.13;93.67;99606.75;5128279;28;20024;-73
2022/10/25 11:40:47;;;;;;;0.80;0.80;;;;;;;13.23;93.60;99615.13;5128145;28;20062;-74